Mount Auburn, Indiana
Current Conditions -  °F | °C
As of 3:05 AM on Monday 26 Jan 2015 (Local Time) from KMIE Reporting Station
Overcast Overcast  
Wind Chill: -15°   Ceiling: 1500
Heat Index: -7°   Visibility: 10mi
Dew Point: -10°   Wind: 15mph
Humidity: 81%   Direction: 40°NE
Pressure: 29.87"   Gusts: NA
Location:  39.8349°N, 85.156°W
Report Text: KMIE 260805Z AUTO 04013KT 10SM BKN015 OVC034 M07/M10 A2987 RMK AO2 T10721100
Loading
Personal Weather Stations






























Interactive Weather Map New forecast layout! Learn more

10-Day Weather Forecast

Advertisements
Track Severe Weather on mobile